This is the latest recevied weather packets stored in our database for station/object KY4GW. If no packets are shown the sender has not sent any weather packets the latest 10 day(s).
| Time | Temp. | Humidity | Pressure | Rain* | Wind** | Luminosity | Snow |
|---|---|---|---|---|---|---|---|
| 1777663942 | 15° C | 54% | 1016.9 hPa | 0 mm | - | 668 W/m² | - |
| 1777663639 | 15° C | 51% | 1016.9 hPa | 0 mm | - | 473 W/m² | - |
| 1777663336 | 15.56° C | 53% | 1016.9 hPa | 0 mm | - | 324 W/m² | - |
| 1777663033 | 15° C | 53% | 1016.9 hPa | 0 mm | - | 857 W/m² | - |
| 1777662731 | 15° C | 54% | 1016.9 hPa | 0 mm | - | 214 W/m² | - |
| 1777662427 | 16.11° C | 49% | 1016.9 hPa | 0 mm | - | 889 W/m² | - |
| 1777661211 | 14.44° C | 55% | 1017.3 hPa | 0 mm | - | 262 W/m² | - |
| 1777660608 | 13.89° C | 61% | 1017.6 hPa | 0 mm | - | 902 W/m² | - |
| 1777660304 | 13.33° C | 59% | 1017.6 hPa | 0 mm | - | 248 W/m² | - |
| 1777660001 | 13.89° C | 61% | 1017.3 hPa | 0 mm | - | 210 W/m² | - |
| 1777659697 | 13.89° C | 61% | 1017.3 hPa | 0 mm | - | 65 W/m² | - |
| 1777659395 | 13.89° C | 60% | 1017.3 hPa | 0 mm | - | 79 W/m² | - |
| 1777659092 | 15° C | 60% | 1017.3 hPa | 0 mm | - | 195 W/m² | - |
| 1777658790 | 16.11° C | 53% | 1017.3 hPa | 0 mm | - | 973 W/m² | - |
| 1777658485 | 15° C | 59% | 1017.3 hPa | 0 mm | - | 968 W/m² | - |
| 1777657274 | 13.33° C | 61% | 1017.3 hPa | 0 mm | - | 203 W/m² | - |
| 1777656668 | 13.89° C | 62% | 1017.3 hPa | 0 mm | - | 276 W/m² | - |
| 1777656363 | 14.44° C | 59% | 1017.3 hPa | 0 mm | - | 496 W/m² | - |
| 1777656059 | 13.89° C | 61% | 1017.3 hPa | 0 mm | - | 607 W/m² | - |
| 1777655755 | 13.89° C | 63% | 1017.6 hPa | 0 mm | - | 436 W/m² | - |
| 1777655149 | 13.33° C | 61% | 1017.6 hPa | 0 mm | - | 460 W/m² | - |
| 1777654846 | 12.78° C | 62% | 1017.6 hPa | 0 mm | - | 359 W/m² | - |
| 1777654241 | 12.78° C | 65% | 1017.6 hPa | 0 mm | - | 288 W/m² | - |
| 1777653938 | 12.22° C | 66% | 1017.6 hPa | 0 mm | - | 209 W/m² | - |
| 1777653332 | 12.22° C | 70% | 1017.6 hPa | 0 mm | - | 105 W/m² | - |
* Rain latest hour (hover to see other rain measurements)
** Current wind speed in m/s (hover to see current wind gust speed)